createdAt,value
2023-02-09T00:00:13.177Z,95909.50
2023-02-09T00:02:40.709Z,95910.38
2023-02-09T00:05:09.199Z,95917.25
2023-02-09T00:07:36.599Z,95906.13
2023-02-09T00:10:05.689Z,95906.91
2023-02-09T00:12:50.770Z,95904.59
2023-02-09T00:15:17.598Z,95897.88
2023-02-09T00:17:44.353Z,95903.88
2023-02-09T00:20:11.469Z,95904.72
2023-02-09T00:22:38.201Z,95906.38
2023-02-09T00:25:05.302Z,95905.59
2023-02-09T00:27:35.568Z,95905.63
2023-02-09T00:30:02.687Z,95912.25
2023-02-09T00:32:33.167Z,95899.75
2023-02-09T00:35:00.092Z,95898.94
2023-02-09T00:37:26.906Z,95896.59
2023-02-09T00:39:53.667Z,95895.78
2023-02-09T00:42:20.404Z,95907.81
2023-02-09T00:44:47.166Z,95895.09
2023-02-09T00:47:13.895Z,95903.72
2023-02-09T00:49:40.699Z,95893.59
2023-02-09T00:52:09.768Z,95899.66
2023-02-09T00:54:36.812Z,95909.03
2023-02-09T00:57:05.523Z,95907.34
2023-02-09T00:59:34.969Z,95894.81
2023-02-09T01:02:02.409Z,95913.34
2023-02-09T01:04:29.211Z,95899.88
2023-02-09T01:06:56.106Z,95909.44
2023-02-09T01:09:22.859Z,95908.63
2023-02-09T01:11:49.852Z,95922.34
2023-02-09T01:14:17.392Z,95923.22
2023-02-09T01:16:44.274Z,95916.41
2023-02-09T01:19:13.666Z,95903.59
2023-02-09T01:21:41.114Z,95918.03
2023-02-09T01:24:12.968Z,95908.00
2023-02-09T01:26:39.752Z,95906.25
2023-02-09T01:29:06.780Z,95913.00
2023-02-09T01:31:35.942Z,95910.50
2023-02-09T01:34:04.602Z,95899.59
2023-02-09T01:36:33.036Z,95910.50
2023-02-09T01:39:02.570Z,95908.00
2023-02-09T01:41:29.995Z,95902.06
2023-02-09T01:44:03.988Z,95897.13
2023-02-09T01:46:35.648Z,95879.41
2023-02-09T01:49:10.086Z,95887.97
2023-02-09T01:51:42.772Z,95890.41
2023-02-09T01:54:19.348Z,95888.78
2023-02-09T01:56:51.425Z,95889.69
2023-02-09T01:59:19.535Z,95883.03
2023-02-09T02:01:46.358Z,95877.97
2023-02-09T02:04:13.422Z,95866.88
2023-02-09T02:06:40.955Z,95867.81
2023-02-09T02:09:14.260Z,95879.66
2023-02-09T02:11:45.258Z,95864.31
2023-02-09T02:14:37.402Z,95866.25
2023-02-09T02:17:17.751Z,95843.56
2023-02-09T02:22:48.365Z,95858.75
2023-02-09T02:25:38.139Z,95861.31
2023-02-09T02:28:26.323Z,95848.44
2023-02-09T02:31:34.145Z,95852.59
2023-02-09T02:34:12.753Z,95853.53
2023-02-09T02:36:47.464Z,95847.94
2023-02-09T02:39:26.726Z,95852.25
2023-02-09T02:42:21.944Z,95854.88
2023-02-09T02:45:04.629Z,95861.75
2023-02-09T02:47:35.017Z,95852.44
2023-02-09T02:50:14.310Z,95857.63
2023-02-09T02:52:46.030Z,95870.38
2023-02-09T02:55:17.554Z,95870.38
2023-02-09T02:57:50.523Z,95870.28
2023-02-09T03:00:26.915Z,95867.00
2023-02-09T03:02:59.016Z,95865.28
2023-02-09T03:05:27.470Z,95864.50
2023-02-09T03:07:54.257Z,95859.50
2023-02-09T03:10:41.131Z,95877.19
2023-02-09T03:13:21.373Z,95884.16
2023-02-09T03:16:21.021Z,95893.63
2023-02-09T03:19:03.859Z,95893.72
2023-02-09T03:22:02.604Z,95891.16
2023-02-09T03:24:32.184Z,95887.88
2023-02-09T03:27:18.904Z,95882.75
2023-02-09T03:29:50.129Z,95876.69
2023-02-09T03:32:18.990Z,95877.50
2023-02-09T03:34:46.048Z,95867.22
2023-02-09T03:37:13.020Z,95865.59
2023-02-09T03:39:39.992Z,95873.06
2023-02-09T03:42:07.124Z,95878.97
2023-02-09T03:44:33.852Z,95859.56
2023-02-09T03:47:05.138Z,95856.03
2023-02-09T03:49:40.766Z,95862.81
2023-02-09T03:52:12.281Z,95863.66
2023-02-09T03:54:39.564Z,95863.75
2023-02-09T03:57:08.404Z,95862.94
2023-02-09T03:59:38.296Z,95868.09
2023-02-09T04:02:08.174Z,95858.75
2023-02-09T04:04:35.596Z,95850.31
2023-02-09T04:07:02.879Z,95859.66
2023-02-09T04:09:29.836Z,95860.50
2023-02-09T04:11:56.756Z,95862.13
2023-02-09T04:14:23.559Z,95871.50
2023-02-09T04:16:50.266Z,95858.78
2023-02-09T04:19:17.297Z,95873.44
2023-02-09T04:21:44.219Z,95885.06
2023-02-09T04:24:11.052Z,95869.94
2023-02-09T04:26:37.899Z,95872.47
2023-02-09T04:29:04.901Z,95869.94
2023-02-09T04:31:32.260Z,95866.50
2023-02-09T04:33:59.079Z,95865.75
2023-02-09T04:36:25.879Z,95875.78
2023-02-09T04:38:52.674Z,95890.97
2023-02-09T04:41:19.449Z,95884.19
2023-02-09T04:43:46.901Z,95882.44
2023-02-09T04:46:16.197Z,95868.09
2023-02-09T04:48:43.870Z,95878.97
2023-02-09T04:51:11.020Z,95877.22
2023-02-09T04:53:37.793Z,95872.25
2023-02-09T04:56:05.401Z,95870.38
2023-02-09T04:58:50.695Z,95870.19
2023-02-09T05:01:24.303Z,95862.56
2023-02-09T05:03:52.302Z,95871.75
2023-02-09T05:06:19.487Z,95869.16
2023-02-09T05:08:46.972Z,95859.78
2023-02-09T05:11:13.728Z,95870.00
2023-02-09T05:13:40.514Z,95857.25
2023-02-09T05:16:11.769Z,95866.47
2023-02-09T05:18:38.529Z,95862.81
2023-02-09T05:21:05.801Z,95861.94
2023-02-09T05:23:32.551Z,95856.84
2023-02-09T05:25:59.295Z,95858.75
2023-02-09T05:28:26.337Z,95856.06
2023-02-09T05:30:54.280Z,95870.31
2023-02-09T05:33:23.953Z,95871.16
2023-02-09T05:35:52.565Z,95869.41
2023-02-09T05:38:19.841Z,95861.78
2023-02-09T05:40:47.003Z,95874.31
2023-02-09T05:43:15.029Z,95865.94
2023-02-09T05:45:41.848Z,95870.13
2023-02-09T05:48:08.613Z,95873.38
2023-02-09T05:50:36.103Z,95864.97
2023-02-09T05:53:03.169Z,95886.09
2023-02-09T05:55:30.068Z,95870.66
2023-02-09T05:57:56.993Z,95873.22
2023-02-09T06:00:25.243Z,95876.50
2023-02-09T06:02:52.140Z,95871.38
2023-02-09T06:05:21.174Z,95880.72
2023-02-09T06:07:48.907Z,95882.34
2023-02-09T06:10:19.599Z,95875.53
2023-02-09T06:12:46.392Z,95882.34
2023-02-09T06:15:16.279Z,95880.66
2023-02-09T06:17:43.293Z,95872.16
2023-02-09T06:20:11.176Z,95879.00
2023-02-09T06:22:37.945Z,95883.22
2023-02-09T06:25:05.056Z,95884.84
2023-02-09T06:27:31.809Z,95885.75
2023-02-09T06:29:58.560Z,95887.56
2023-02-09T06:32:25.284Z,95887.72
2023-02-09T06:34:52.086Z,95889.34
2023-02-09T06:37:18.827Z,95896.34
2023-02-09T06:39:45.618Z,95899.69
2023-02-09T06:42:12.362Z,95897.28
2023-02-09T06:44:39.110Z,95917.72
2023-02-09T06:47:05.867Z,95906.78
2023-02-09T06:49:32.849Z,95912.72
2023-02-09T06:51:59.773Z,95919.50
2023-02-09T06:54:28.444Z,95911.97
2023-02-09T06:56:55.719Z,95918.84
2023-02-09T06:59:22.559Z,95914.56
2023-02-09T07:01:54.754Z,95923.09
2023-02-09T07:04:22.322Z,95928.09
2023-02-09T07:06:49.146Z,95928.06
2023-02-09T07:09:15.898Z,95928.03
2023-02-09T07:11:42.783Z,95937.28
2023-02-09T07:14:09.517Z,95934.72
2023-02-09T07:16:36.239Z,95933.94
2023-02-09T07:19:03.007Z,95930.56
2023-02-09T07:21:29.835Z,95938.09
2023-02-09T07:23:56.576Z,95933.84
2023-02-09T07:26:23.321Z,95931.50
2023-02-09T07:28:50.081Z,95939.16
2023-02-09T07:31:17.750Z,95939.97
2023-02-09T07:33:44.929Z,95933.19
2023-02-09T07:36:14.493Z,95951.59
2023-02-09T07:38:41.741Z,95953.22
2023-02-09T07:41:16.289Z,95952.31
2023-02-09T07:43:43.205Z,95941.25
2023-02-09T07:46:11.943Z,95953.09
2023-02-09T07:48:38.728Z,95946.16
2023-02-09T07:51:05.880Z,95947.72
2023-02-09T07:53:33.495Z,95956.94
2023-02-09T07:56:00.430Z,95951.81
2023-02-09T07:58:27.220Z,95945.72
2023-02-09T08:00:54.007Z,95950.72
2023-02-09T08:03:23.747Z,95938.78
2023-02-09T08:06:08.649Z,95952.94
2023-02-09T08:08:35.357Z,95943.59
2023-02-09T08:11:04.348Z,95947.72
2023-02-09T08:13:37.201Z,95957.00
2023-02-09T08:16:08.939Z,95939.00
2023-02-09T08:18:49.153Z,95943.69
2023-02-09T08:21:17.759Z,95942.72
2023-02-09T08:23:47.767Z,95948.44
2023-02-09T08:26:15.362Z,95941.44
2023-02-09T08:28:45.856Z,95941.13
2023-02-09T08:31:19.281Z,95940.91
2023-02-09T08:33:48.325Z,95942.38
2023-02-09T08:36:16.898Z,95944.53
2023-02-09T08:38:44.421Z,95946.75
2023-02-09T08:41:13.713Z,95931.91
2023-02-09T08:43:40.834Z,95939.97
2023-02-09T08:46:12.500Z,95945.41
2023-02-09T08:48:43.181Z,95953.63
2023-02-09T08:51:12.284Z,95939.78
2023-02-09T08:53:39.583Z,95929.94
2023-02-09T08:56:06.939Z,95943.75
2023-02-09T08:58:33.675Z,95931.34
2023-02-09T09:01:00.868Z,95934.31
2023-02-09T09:03:31.642Z,95938.69
2023-02-09T09:06:00.857Z,95932.31
2023-02-09T09:08:28.371Z,95935.97
2023-02-09T09:10:55.521Z,95935.53
2023-02-09T09:13:26.596Z,95941.84
2023-02-09T09:15:57.484Z,95928.56
2023-02-09T09:18:25.941Z,95939.09
2023-02-09T09:20:53.146Z,95936.09
2023-02-09T09:23:21.293Z,95934.44
2023-02-09T09:25:48.617Z,95936.09
2023-02-09T09:28:16.001Z,95936.00
2023-02-09T09:30:43.063Z,95931.84
2023-02-09T09:33:09.907Z,95933.28
2023-02-09T09:35:36.810Z,95935.69
2023-02-09T09:38:03.595Z,95932.03
2023-02-09T09:40:35.701Z,95935.41
2023-02-09T09:43:06.177Z,95933.13
2023-02-09T09:45:38.384Z,95932.31
2023-02-09T09:48:07.561Z,95937.03
2023-02-09T09:50:42.129Z,95934.34
2023-02-09T09:53:31.832Z,95944.44
2023-02-09T09:56:02.859Z,95940.78
2023-02-09T09:58:30.979Z,95942.44
2023-02-09T10:00:57.903Z,95940.19
2023-02-09T10:03:25.591Z,95931.91
2023-02-09T10:05:56.748Z,95936.38
2023-02-09T10:08:39.639Z,95941.75
2023-02-09T10:11:10.309Z,95939.59
2023-02-09T10:13:44.635Z,95940.88
2023-02-09T10:16:19.399Z,95940.28
2023-02-09T10:18:57.436Z,95939.06
2023-02-09T10:21:28.508Z,95937.59
2023-02-09T10:24:01.375Z,95946.56
2023-02-09T10:26:34.899Z,95934.53
2023-02-09T10:29:24.993Z,95917.28
2023-02-09T10:32:05.281Z,95942.97
2023-02-09T10:34:44.492Z,95932.47
2023-02-09T10:37:36.161Z,95933.63
2023-02-09T10:40:26.752Z,95925.06
2023-02-09T10:42:59.501Z,95917.50
2023-02-09T10:45:29.704Z,95925.28
2023-02-09T10:48:19.284Z,95917.59
2023-02-09T10:50:59.029Z,95919.13
2023-02-09T10:53:31.732Z,95922.81
2023-02-09T10:56:05.799Z,95905.31
2023-02-09T10:58:36.596Z,95920.09
2023-02-09T11:01:09.146Z,95910.66
2023-02-09T11:03:46.486Z,95910.78
2023-02-09T11:06:19.492Z,95894.63
2023-02-09T11:08:52.680Z,95906.59
2023-02-09T11:11:37.085Z,95895.19
2023-02-09T11:14:10.457Z,95897.50
2023-02-09T11:16:55.823Z,95887.16
2023-02-09T11:19:58.771Z,95882.03
2023-02-09T11:22:49.769Z,95879.22
2023-02-09T11:25:26.705Z,95883.38
2023-02-09T11:28:35.491Z,95877.94
2023-02-09T11:31:46.561Z,95867.19
2023-02-09T11:35:01.127Z,95877.78
2023-02-09T11:37:54.309Z,95868.53
2023-02-09T11:40:43.289Z,95870.63
2023-02-09T11:43:19.278Z,95866.25
2023-02-09T11:45:48.529Z,95859.38
2023-02-09T11:48:18.147Z,95858.13
2023-02-09T11:51:10.321Z,95860.00
2023-02-09T11:53:54.093Z,95839.25
2023-02-09T11:56:24.127Z,95853.56
2023-02-09T11:59:15.581Z,95855.81
2023-02-09T12:02:07.667Z,95852.44
2023-02-09T12:05:02.821Z,95835.13
2023-02-09T12:07:49.220Z,95825.31
2023-02-09T12:10:36.341Z,95820.06
2023-02-09T12:13:34.088Z,95827.34
2023-02-09T12:16:07.468Z,95824.50
2023-02-09T12:18:35.553Z,95824.94
2023-02-09T12:21:06.379Z,95831.88
2023-02-09T12:23:39.057Z,95813.69
2023-02-09T12:26:12.003Z,95831.94
2023-02-09T12:28:43.906Z,95827.84
2023-02-09T12:31:23.863Z,95814.91
2023-02-09T12:33:59.851Z,95832.59
2023-02-09T12:36:35.563Z,95820.28
2023-02-09T12:39:23.847Z,95818.16
2023-02-09T12:41:50.719Z,95823.81
2023-02-09T12:44:18.437Z,95811.09
2023-02-09T12:46:45.251Z,95820.97
2023-02-09T12:49:11.951Z,95811.13
2023-02-09T12:51:50.788Z,95810.66
2023-02-09T12:54:50.022Z,95806.72
2023-02-09T12:57:16.844Z,95798.03
2023-02-09T12:59:52.478Z,95792.34
2023-02-09T13:02:27.485Z,95774.94
2023-02-09T13:05:06.373Z,95793.03
2023-02-09T13:07:33.037Z,95790.13
2023-02-09T13:10:20.364Z,95776.81
2023-02-09T13:12:58.894Z,95771.41
2023-02-09T13:15:29.444Z,95760.31
2023-02-09T13:17:59.336Z,95781.38
2023-02-09T13:20:45.895Z,95790.38
2023-02-09T13:24:06.846Z,95783.75
2023-02-09T13:26:36.691Z,95755.59
2023-02-09T13:29:20.906Z,95761.66
2023-02-09T13:32:29.020Z,95766.59
2023-02-09T13:35:01.691Z,95785.84
2023-02-09T13:37:47.788Z,95777.31
2023-02-09T13:40:26.060Z,95781.66
2023-02-09T13:43:10.880Z,95795.22
2023-02-09T13:45:49.066Z,95803.47
2023-02-09T13:48:27.466Z,95798.06
2023-02-09T13:50:56.710Z,95799.69
2023-02-09T13:53:27.169Z,95772.84
2023-02-09T13:55:56.537Z,95792.19
2023-02-09T13:58:31.164Z,95789.00
2023-02-09T14:01:06.420Z,95803.38
2023-02-09T14:03:56.765Z,95798.41
2023-02-09T14:06:55.249Z,95804.47
2023-02-09T14:09:30.195Z,95780.56
2023-02-09T14:12:09.686Z,95791.84
2023-02-09T14:15:14.493Z,95777.22
2023-02-09T14:20:21.445Z,95799.59
2023-02-09T14:23:01.014Z,95789.22
2023-02-09T14:25:30.950Z,95816.13
2023-02-09T14:27:58.439Z,95802.31
2023-02-09T14:30:32.125Z,95798.78
2023-02-09T14:33:03.466Z,95797.31
2023-02-09T14:35:40.093Z,95808.03
2023-02-09T14:38:37.156Z,95834.44
2023-02-09T14:41:22.545Z,95831.56
2023-02-09T14:44:22.347Z,95831.34
2023-02-09T14:46:58.294Z,95823.38
2023-02-09T14:49:26.436Z,95820.66
2023-02-09T14:52:04.542Z,95822.41
2023-02-09T14:54:35.036Z,95838.47
2023-02-09T14:57:03.788Z,95829.41
2023-02-09T14:59:30.904Z,95829.66
2023-02-09T15:01:57.747Z,95849.41
2023-02-09T15:04:24.514Z,95825.25
2023-02-09T15:07:00.948Z,95845.13
2023-02-09T15:09:36.166Z,95849.03
2023-02-09T15:12:05.738Z,95850.25
2023-02-09T15:14:45.004Z,95852.03
2023-02-09T15:17:23.732Z,95855.38
2023-02-09T15:19:50.485Z,95856.34
2023-02-09T15:22:18.433Z,95855.13
2023-02-09T15:24:48.413Z,95855.25
2023-02-09T15:27:33.932Z,95871.44
2023-02-09T15:30:04.331Z,95860.94
2023-02-09T15:32:31.673Z,95850.47
2023-02-09T15:34:58.451Z,95848.22
2023-02-09T15:37:36.351Z,95863.94
2023-02-09T15:40:14.080Z,95884.97
2023-02-09T15:45:48.475Z,95879.69
2023-02-09T15:48:15.505Z,95881.19
2023-02-09T15:50:47.990Z,95890.66
2023-02-09T15:53:18.899Z,95884.66
2023-02-09T15:55:46.770Z,95880.31
2023-02-09T15:58:21.807Z,95893.53
2023-02-09T16:00:48.675Z,95890.81
2023-02-09T16:03:18.892Z,95901.69
2023-02-09T16:05:48.764Z,95899.63
2023-02-09T16:08:23.836Z,95910.50
2023-02-09T16:10:51.509Z,95913.22
2023-02-09T16:13:20.031Z,95901.91
2023-02-09T16:15:48.489Z,95917.97
2023-02-09T16:18:15.673Z,95919.59
2023-02-09T16:20:50.324Z,95917.03
2023-02-09T16:23:24.074Z,95917.19
2023-02-09T16:25:53.224Z,95922.56
2023-02-09T16:28:21.757Z,95933.31
2023-02-09T16:30:57.989Z,95943.00
2023-02-09T16:33:25.826Z,95934.66
2023-02-09T16:36:00.199Z,95957.78
2023-02-09T16:38:28.526Z,95941.25
2023-02-09T16:40:56.408Z,95947.09
2023-02-09T16:43:23.909Z,95935.38
2023-02-09T16:46:02.948Z,95947.91
2023-02-09T16:48:32.483Z,95952.41
2023-02-09T16:50:59.722Z,95947.34
2023-02-09T16:53:35.037Z,95957.34
2023-02-09T16:56:10.409Z,95948.16
2023-02-09T16:58:38.375Z,95957.03
2023-02-09T17:01:22.304Z,95964.84
2023-02-09T17:03:53.025Z,95967.94
2023-02-09T17:06:27.161Z,95973.78
2023-02-09T17:08:56.621Z,95951.66
2023-02-09T17:11:54.363Z,95974.34
2023-02-09T17:14:21.107Z,95970.66
2023-02-09T17:16:49.897Z,95978.53
2023-02-09T17:19:18.317Z,95978.94
2023-02-09T17:21:45.331Z,95980.88
2023-02-09T17:24:17.530Z,95978.66
2023-02-09T17:26:44.809Z,95978.44
2023-02-09T17:29:12.212Z,95990.56
2023-02-09T17:31:52.723Z,95992.44
2023-02-09T17:34:22.070Z,95988.72
2023-02-09T17:36:48.788Z,95993.31
2023-02-09T17:39:16.864Z,95990.09
2023-02-09T17:41:46.538Z,95991.53
2023-02-09T17:44:35.239Z,96000.28
2023-02-09T17:47:06.347Z,96010.94
2023-02-09T17:49:33.383Z,95992.50
2023-02-09T17:52:00.164Z,95992.94
2023-02-09T17:54:27.956Z,95989.88
2023-02-09T17:56:54.748Z,95981.91
2023-02-09T17:59:21.649Z,95998.44
2023-02-09T18:01:55.253Z,96009.06
2023-02-09T18:04:26.916Z,96002.72
2023-02-09T18:06:54.332Z,96003.75
2023-02-09T18:09:21.878Z,96005.84
2023-02-09T18:11:51.418Z,96018.91
2023-02-09T18:14:21.236Z,96015.84
2023-02-09T18:16:48.406Z,96023.81
2023-02-09T18:19:18.820Z,96027.50
2023-02-09T18:22:04.186Z,96034.53
2023-02-09T18:24:34.402Z,96046.69
2023-02-09T18:27:01.366Z,96047.78
2023-02-09T18:29:30.819Z,96065.63
2023-02-09T18:32:02.480Z,96066.06
2023-02-09T18:34:30.227Z,96070.41
2023-02-09T18:36:57.140Z,96072.47
2023-02-09T18:39:24.061Z,96066.69
2023-02-09T18:41:57.120Z,96061.50
2023-02-09T18:44:29.038Z,96074.28
2023-02-09T18:46:57.833Z,96075.56
2023-02-09T18:49:24.668Z,96079.13
2023-02-09T18:51:52.334Z,96090.41
2023-02-09T18:54:19.377Z,96094.06
2023-02-09T18:56:46.136Z,96094.94
2023-02-09T18:59:13.009Z,96084.59
2023-02-09T19:01:40.699Z,96091.31
2023-02-09T19:04:08.139Z,96086.25
2023-02-09T19:06:37.940Z,96100.09
2023-02-09T19:09:04.730Z,96106.28
2023-02-09T19:11:31.516Z,96107.41
2023-02-09T19:14:36.724Z,96111.81
2023-02-09T19:17:09.437Z,96106.88
2023-02-09T19:19:36.235Z,96118.00
2023-02-09T19:22:02.941Z,96126.50
2023-02-09T19:24:29.755Z,96111.47
2023-02-09T19:26:56.881Z,96120.69
2023-02-09T19:29:25.799Z,96123.41
2023-02-09T19:31:53.396Z,96117.31
2023-02-09T19:34:20.124Z,96127.78
2023-02-09T19:36:46.864Z,96120.13
2023-02-09T19:39:13.641Z,96133.03
2023-02-09T19:41:40.551Z,96137.56
2023-02-09T19:44:07.361Z,96135.88
2023-02-09T19:46:34.217Z,96145.34
2023-02-09T19:49:02.169Z,96145.47
2023-02-09T19:51:28.981Z,96129.56
2023-02-09T19:53:55.755Z,96135.66
2023-02-09T19:56:23.654Z,96138.59
2023-02-09T19:58:51.536Z,96143.75
2023-02-09T20:01:19.182Z,96137.81
2023-02-09T20:03:46.276Z,96131.19
2023-02-09T20:06:14.458Z,96127.97
2023-02-09T20:08:41.282Z,96110.06
2023-02-09T20:11:13.899Z,96115.28
2023-02-09T20:13:40.635Z,96136.06
2023-02-09T20:16:18.055Z,96140.72
2023-02-09T20:18:48.016Z,96123.56
2023-02-09T20:21:20.453Z,96128.22
2023-02-09T20:23:47.693Z,96132.75
2023-02-09T20:26:18.476Z,96129.28
2023-02-09T20:28:45.208Z,96129.31
2023-02-09T20:31:12.980Z,96127.69
2023-02-09T20:33:41.369Z,96130.31
2023-02-09T20:36:09.936Z,96117.50
2023-02-09T20:38:37.476Z,96136.53
2023-02-09T20:41:13.808Z,96135.97
2023-02-09T20:44:03.209Z,96139.66
2023-02-09T20:46:51.561Z,96149.09
2023-02-09T20:49:19.152Z,96151.13
2023-02-09T20:51:46.720Z,96159.06
2023-02-09T20:54:14.041Z,96149.13
2023-02-09T20:56:41.885Z,96144.94
2023-02-09T20:59:08.976Z,96152.88
2023-02-09T21:01:39.869Z,96160.69
2023-02-09T21:04:07.551Z,96164.88
2023-02-09T21:06:40.064Z,96155.63
2023-02-09T21:09:08.169Z,96159.00
2023-02-09T21:11:35.255Z,96160.75
2023-02-09T21:14:02.490Z,96158.34
2023-02-09T21:16:31.019Z,96150.75
2023-02-09T21:18:59.116Z,96150.88
2023-02-09T21:21:27.193Z,96166.22
2023-02-09T21:23:54.406Z,96161.09
2023-02-09T21:26:22.854Z,96165.44
2023-02-09T21:28:51.479Z,96156.13
2023-02-09T21:31:22.413Z,96177.91
2023-02-09T21:33:49.139Z,96168.88
2023-02-09T21:36:15.975Z,96172.22
2023-02-09T21:38:42.792Z,96164.50
2023-02-09T21:41:44.080Z,96166.19
2023-02-09T21:44:12.618Z,96174.81
2023-02-09T21:46:39.421Z,96166.25
2023-02-09T21:49:06.423Z,96167.16
2023-02-09T21:51:33.654Z,96179.34
2023-02-09T21:54:00.446Z,96173.69
2023-02-09T21:56:27.218Z,96172.97
2023-02-09T21:58:53.960Z,96174.03
2023-02-09T22:01:20.745Z,96186.72
2023-02-09T22:03:57.400Z,96176.63
2023-02-09T22:06:25.836Z,96181.84
2023-02-09T22:08:52.940Z,96185.50
2023-02-09T22:11:19.681Z,96183.53
2023-02-09T22:13:46.413Z,96192.75
2023-02-09T22:16:20.665Z,96198.22
2023-02-09T22:18:47.650Z,96189.97
2023-02-09T22:21:14.462Z,96200.94
2023-02-09T22:23:41.262Z,96196.53
2023-02-09T22:26:08.263Z,96199.00
2023-02-09T22:28:36.531Z,96201.56
2023-02-09T22:31:22.333Z,96204.94
2023-02-09T22:33:54.105Z,96210.19
2023-02-09T22:36:22.063Z,96212.19
2023-02-09T22:38:48.915Z,96210.59
2023-02-09T22:41:22.429Z,96210.88
2023-02-09T22:43:53.793Z,96221.19
2023-02-09T22:46:28.924Z,96223.81
2023-02-09T22:49:01.951Z,96222.88
2023-02-09T22:51:30.630Z,96230.50
2023-02-09T22:53:58.572Z,96230.66
2023-02-09T22:56:26.570Z,96235.03
2023-02-09T22:58:54.797Z,96231.50
2023-02-09T23:01:22.498Z,96233.13
2023-02-09T23:03:50.188Z,96236.69
2023-02-09T23:06:21.380Z,96245.91
2023-02-09T23:08:48.183Z,96237.69
2023-02-09T23:11:17.369Z,96243.72
2023-02-09T23:13:44.899Z,96253.34
2023-02-09T23:16:27.368Z,96243.81
2023-02-09T23:19:04.441Z,96254.00
2023-02-09T23:21:37.883Z,96260.00
2023-02-09T23:24:05.462Z,96259.31
2023-02-09T23:26:32.837Z,96253.34
2023-02-09T23:29:03.759Z,96253.69
2023-02-09T23:31:30.926Z,96251.22
2023-02-09T23:33:57.988Z,96255.47
2023-02-09T23:36:28.102Z,96261.41
2023-02-09T23:38:57.860Z,96257.06
2023-02-09T23:41:25.947Z,96268.13
2023-02-09T23:43:53.540Z,96266.41
2023-02-09T23:46:26.725Z,96253.81
2023-02-09T23:48:56.403Z,96269.28
2023-02-09T23:51:33.385Z,96269.22
2023-02-09T23:54:04.466Z,96256.38
2023-02-09T23:56:37.029Z,96269.91
2023-02-09T23:59:06.721Z,96264.91
